createdAt,value
2022-12-12T00:00:24.143Z,101174.19
2022-12-12T00:02:53.052Z,101179.47
2022-12-12T00:05:22.019Z,101170.16
2022-12-12T00:07:51.038Z,101175.78
2022-12-12T00:10:22.123Z,101177.78
2022-12-12T00:12:50.892Z,101165.53
2022-12-12T00:15:19.667Z,101168.84
2022-12-12T00:17:48.449Z,101172.50
2022-12-12T00:20:17.356Z,101171.84
2022-12-12T00:22:46.050Z,101173.25
2022-12-12T00:25:15.267Z,101179.00
2022-12-12T00:27:46.129Z,101189.34
2022-12-12T00:30:15.407Z,101192.06
2022-12-12T00:32:44.150Z,101183.22
2022-12-12T00:35:13.296Z,101187.00
2022-12-12T00:37:42.243Z,101178.81
2022-12-12T00:40:13.705Z,101175.69
2022-12-12T00:42:42.376Z,101183.78
2022-12-12T00:45:13.715Z,101188.56
2022-12-12T00:47:42.618Z,101184.50
2022-12-12T00:50:11.992Z,101182.06
2022-12-12T00:52:40.799Z,101181.28
2022-12-12T00:55:13.323Z,101182.13
2022-12-12T00:57:42.158Z,101173.50
2022-12-12T01:00:17.125Z,101177.81
2022-12-12T01:02:45.970Z,101177.72
2022-12-12T01:05:15.730Z,101181.47
2022-12-12T01:07:45.124Z,101182.78
2022-12-12T01:10:14.016Z,101186.16
2022-12-12T01:12:43.060Z,101185.47
2022-12-12T01:15:14.832Z,101193.31
2022-12-12T01:17:43.762Z,101194.69
2022-12-12T01:20:20.265Z,101195.78
2022-12-12T01:22:49.049Z,101194.91
2022-12-12T01:25:19.660Z,101193.31
2022-12-12T01:27:48.907Z,101196.81
2022-12-12T01:30:23.483Z,101197.81
2022-12-12T01:32:52.475Z,101203.34
2022-12-12T01:35:21.424Z,101205.22
2022-12-12T01:37:50.332Z,101208.22
2022-12-12T01:40:24.585Z,101208.22
2022-12-12T01:42:54.455Z,101209.59
2022-12-12T01:46:19.603Z,101223.16
2022-12-12T01:48:53.054Z,101229.50
2022-12-12T01:51:25.928Z,101225.34
2022-12-12T01:54:01.332Z,101225.78
2022-12-12T01:56:30.438Z,101226.69
2022-12-12T01:59:01.275Z,101226.09
2022-12-12T02:01:32.903Z,101222.22
2022-12-12T02:04:03.584Z,101221.47
2022-12-12T02:06:33.062Z,101221.69
2022-12-12T02:09:06.526Z,101231.50
2022-12-12T02:11:43.048Z,101232.03
2022-12-12T02:14:12.671Z,101227.03
2022-12-12T02:17:20.412Z,101223.13
2022-12-12T02:20:45.002Z,101231.16
2022-12-12T02:23:58.410Z,101237.78
2022-12-12T02:27:05.482Z,101232.72
2022-12-12T02:30:07.218Z,101240.59
2022-12-12T02:32:59.701Z,101246.25
2022-12-12T02:35:37.280Z,101246.31
2022-12-12T02:38:17.263Z,101242.00
2022-12-12T02:40:55.903Z,101249.09
2022-12-12T02:43:36.293Z,101249.09
2022-12-12T02:46:09.865Z,101254.34
2022-12-12T02:48:47.630Z,101250.13
2022-12-12T02:51:18.659Z,101246.47
2022-12-12T02:53:47.358Z,101242.78
2022-12-12T02:56:51.275Z,101243.84
2022-12-12T02:59:26.316Z,101245.78
2022-12-12T03:02:44.566Z,101243.16
2022-12-12T03:05:49.389Z,101239.25
2022-12-12T03:08:35.754Z,101243.88
2022-12-12T03:11:10.169Z,101249.28
2022-12-12T03:13:48.909Z,101259.94
2022-12-12T03:16:29.017Z,101255.75
2022-12-12T03:19:07.150Z,101261.00
2022-12-12T03:21:45.999Z,101267.44
2022-12-12T03:24:27.008Z,101261.63
2022-12-12T03:27:01.884Z,101259.31
2022-12-12T03:29:35.951Z,101261.16
2022-12-12T03:32:10.571Z,101265.66
2022-12-12T03:34:44.642Z,101258.72
2022-12-12T03:37:21.572Z,101260.69
2022-12-12T03:39:54.783Z,101266.78
2022-12-12T03:42:30.295Z,101263.41
2022-12-12T03:45:07.551Z,101263.00
2022-12-12T03:47:42.188Z,101261.16
2022-12-12T03:50:19.220Z,101262.28
2022-12-12T03:52:56.202Z,101261.38
2022-12-12T03:55:32.108Z,101260.53
2022-12-12T03:58:07.614Z,101259.91
2022-12-12T04:00:38.367Z,101262.53
2022-12-12T04:03:16.060Z,101263.38
2022-12-12T04:06:12.695Z,101262.75
2022-12-12T04:09:03.820Z,101265.28
2022-12-12T04:11:57.524Z,101263.59
2022-12-12T04:14:45.355Z,101267.06
2022-12-12T04:17:19.527Z,101263.81
2022-12-12T04:20:21.967Z,101266.97
2022-12-12T04:23:17.558Z,101266.53
2022-12-12T04:26:14.903Z,101273.59
2022-12-12T04:28:52.096Z,101274.66
2022-12-12T04:31:25.519Z,101272.19
2022-12-12T04:34:02.475Z,101281.94
2022-12-12T04:36:33.555Z,101275.91
2022-12-12T04:39:03.991Z,101279.34
2022-12-12T04:41:38.748Z,101282.19
2022-12-12T04:44:11.431Z,101284.97
2022-12-12T04:46:42.536Z,101287.72
2022-12-12T04:49:19.253Z,101289.41
2022-12-12T04:51:52.931Z,101281.78
2022-12-12T04:54:28.345Z,101278.31
2022-12-12T04:57:03.041Z,101279.25
2022-12-12T04:59:32.384Z,101284.63
2022-12-12T05:02:08.847Z,101291.69
2022-12-12T05:04:48.654Z,101285.59
2022-12-12T05:07:24.393Z,101280.56
2022-12-12T05:09:53.196Z,101281.22
2022-12-12T05:12:23.942Z,101277.16
2022-12-12T05:14:52.801Z,101280.66
2022-12-12T05:17:32.183Z,101273.63
2022-12-12T05:20:01.132Z,101278.09
2022-12-12T05:22:29.810Z,101271.94
2022-12-12T05:24:58.552Z,101278.25
2022-12-12T05:27:29.221Z,101287.09
2022-12-12T05:29:57.999Z,101286.25
2022-12-12T05:32:26.744Z,101284.56
2022-12-12T05:34:55.501Z,101285.47
2022-12-12T05:37:24.332Z,101284.63
2022-12-12T05:39:53.168Z,101283.13
2022-12-12T05:42:21.915Z,101285.75
2022-12-12T05:44:52.605Z,101286.59
2022-12-12T05:47:21.335Z,101286.75
2022-12-12T05:49:50.110Z,101282.50
2022-12-12T05:52:18.911Z,101282.50
2022-12-12T05:54:48.053Z,101292.97
2022-12-12T05:57:16.775Z,101290.41
2022-12-12T05:59:45.411Z,101287.88
2022-12-12T06:02:17.197Z,101293.09
2022-12-12T06:04:45.778Z,101293.38
2022-12-12T06:07:14.507Z,101297.78
2022-12-12T06:09:43.217Z,101299.53
2022-12-12T06:12:11.926Z,101300.44
2022-12-12T06:14:40.661Z,101298.59
2022-12-12T06:17:09.436Z,101304.94
2022-12-12T06:19:40.115Z,101310.16
2022-12-12T06:22:09.249Z,101302.31
2022-12-12T06:24:37.930Z,101307.53
2022-12-12T06:27:06.792Z,101307.59
2022-12-12T06:29:35.657Z,101312.91
2022-12-12T06:32:04.496Z,101314.63
2022-12-12T06:34:33.351Z,101307.72
2022-12-12T06:37:04.530Z,101307.69
2022-12-12T06:39:33.259Z,101314.75
2022-12-12T06:42:02.270Z,101322.66
2022-12-12T06:44:31.084Z,101323.59
2022-12-12T06:46:59.908Z,101323.66
2022-12-12T06:49:28.716Z,101330.59
2022-12-12T06:51:57.437Z,101335.94
2022-12-12T06:54:28.163Z,101329.94
2022-12-12T06:56:57.164Z,101336.06
2022-12-12T06:59:29.708Z,101337.94
2022-12-12T07:01:58.857Z,101331.72
2022-12-12T07:04:27.698Z,101338.66
2022-12-12T07:06:57.568Z,101337.06
2022-12-12T07:09:28.305Z,101349.25
2022-12-12T07:12:00.222Z,101353.03
2022-12-12T07:14:28.967Z,101359.97
2022-12-12T07:16:57.744Z,101356.59
2022-12-12T07:19:26.518Z,101359.25
2022-12-12T07:21:55.309Z,101364.50
2022-12-12T07:24:24.023Z,101354.03
2022-12-12T07:26:54.687Z,101367.91
2022-12-12T07:29:23.506Z,101365.41
2022-12-12T07:31:52.309Z,101361.22
2022-12-12T07:34:24.432Z,101369.13
2022-12-12T07:36:56.542Z,101365.69
2022-12-12T07:39:31.599Z,101371.69
2022-12-12T07:42:02.319Z,101370.91
2022-12-12T07:44:31.009Z,101376.28
2022-12-12T07:47:00.402Z,101375.41
2022-12-12T07:49:31.244Z,101375.41
2022-12-12T07:51:59.991Z,101378.91
2022-12-12T07:54:28.755Z,101383.94
2022-12-12T07:56:57.531Z,101376.06
2022-12-12T07:59:28.245Z,101379.59
2022-12-12T08:01:57.262Z,101385.72
2022-12-12T08:04:26.161Z,101385.63
2022-12-12T08:07:02.765Z,101392.38
2022-12-12T08:09:34.384Z,101390.66
2022-12-12T08:12:03.110Z,101394.00
2022-12-12T08:14:33.920Z,101396.63
2022-12-12T08:17:02.713Z,101399.09
2022-12-12T08:19:31.516Z,101393.66
2022-12-12T08:22:00.352Z,101403.09
2022-12-12T08:24:29.498Z,101400.47
2022-12-12T08:26:58.296Z,101392.44
2022-12-12T08:29:27.077Z,101386.13
2022-12-12T08:31:57.984Z,101390.28
2022-12-12T08:34:27.291Z,101394.34
2022-12-12T08:36:56.129Z,101391.88
2022-12-12T08:39:25.073Z,101399.94
2022-12-12T08:41:54.024Z,101396.69
2022-12-12T08:44:23.702Z,101401.78
2022-12-12T08:46:52.647Z,101408.06
2022-12-12T08:49:23.515Z,101399.84
2022-12-12T08:51:52.309Z,101396.34
2022-12-12T08:54:21.107Z,101393.81
2022-12-12T08:59:22.705Z,101389.06
2022-12-12T09:01:51.618Z,101392.28
2022-12-12T09:04:20.527Z,101397.06
2022-12-12T09:06:49.641Z,101397.38
2022-12-12T09:09:18.317Z,101394.63
2022-12-12T09:11:47.051Z,101398.59
2022-12-12T09:14:15.776Z,101400.13
2022-12-12T09:16:46.411Z,101393.19
2022-12-12T09:19:15.163Z,101405.41
2022-12-12T09:21:44.055Z,101399.09
2022-12-12T09:24:12.771Z,101399.38
2022-12-12T09:26:41.615Z,101392.03
2022-12-12T09:29:12.283Z,101395.47
2022-12-12T09:31:41.333Z,101394.81
2022-12-12T09:34:12.044Z,101395.88
2022-12-12T09:36:40.825Z,101395.84
2022-12-12T09:39:09.568Z,101399.88
2022-12-12T09:41:38.647Z,101395.94
2022-12-12T09:44:11.387Z,101398.06
2022-12-12T09:46:45.659Z,101390.66
2022-12-12T09:49:29.023Z,101395.44
2022-12-12T09:52:00.481Z,101384.69
2022-12-12T09:54:30.016Z,101392.97
2022-12-12T09:57:14.983Z,101381.59
2022-12-12T09:59:49.471Z,101386.00
2022-12-12T10:03:18.293Z,101384.97
2022-12-12T10:06:20.684Z,101395.22
2022-12-12T10:09:03.079Z,101392.00
2022-12-12T10:11:49.742Z,101373.44
2022-12-12T10:14:22.573Z,101387.22
2022-12-12T10:16:57.395Z,101381.69
2022-12-12T10:19:31.752Z,101382.28
2022-12-12T10:22:10.367Z,101384.22
2022-12-12T10:24:45.966Z,101383.13
2022-12-12T10:27:16.040Z,101388.22
2022-12-12T10:29:49.879Z,101375.66
2022-12-12T10:32:37.211Z,101372.50
2022-12-12T10:35:26.494Z,101373.22
2022-12-12T10:38:13.167Z,101372.06
2022-12-12T10:40:54.599Z,101370.78
2022-12-12T10:43:28.767Z,101369.25
2022-12-12T10:46:18.988Z,101364.16
2022-12-12T10:48:50.103Z,101366.38
2022-12-12T10:51:22.783Z,101358.06
2022-12-12T10:53:53.765Z,101353.47
2022-12-12T10:56:25.169Z,101346.69
2022-12-12T10:58:56.334Z,101341.97
2022-12-12T11:02:00.716Z,101341.53
2022-12-12T11:04:18.423Z,101345.72
2022-12-12T11:06:51.972Z,101348.88
2022-12-12T11:09:25.653Z,101354.47
2022-12-12T11:12:01.605Z,101348.97
2022-12-12T11:14:38.250Z,101343.06
2022-12-12T11:17:23.170Z,101342.94
2022-12-12T11:19:56.417Z,101350.50
2022-12-12T11:22:25.792Z,101345.66
2022-12-12T11:24:56.829Z,101339.63
2022-12-12T11:27:30.269Z,101346.66
2022-12-12T11:30:02.236Z,101343.06
2022-12-12T11:32:33.963Z,101349.47
2022-12-12T11:35:06.386Z,101345.88
2022-12-12T11:37:46.939Z,101342.56
2022-12-12T11:40:27.117Z,101338.72
2022-12-12T11:43:14.884Z,101341.38
2022-12-12T11:45:43.660Z,101338.97
2022-12-12T11:48:44.172Z,101334.59
2022-12-12T11:51:13.576Z,101342.25
2022-12-12T11:53:46.746Z,101339.00
2022-12-12T11:56:40.365Z,101340.06
2022-12-12T11:59:48.803Z,101345.75
2022-12-12T12:03:06.200Z,101339.72
2022-12-12T12:05:48.472Z,101341.28
2022-12-12T12:08:40.174Z,101334.97
2022-12-12T12:11:26.426Z,101337.38
2022-12-12T12:14:17.027Z,101336.88
2022-12-12T12:16:57.601Z,101337.94
2022-12-12T12:19:37.483Z,101335.56
2022-12-12T12:22:17.895Z,101333.22
2022-12-12T12:25:17.939Z,101333.94
2022-12-12T12:28:02.991Z,101346.66
2022-12-12T12:30:35.978Z,101346.00
2022-12-12T12:33:39.216Z,101348.50
2022-12-12T12:36:21.153Z,101345.66
2022-12-12T12:39:11.137Z,101350.59
2022-12-12T12:41:58.991Z,101346.28
2022-12-12T12:44:44.718Z,101344.97
2022-12-12T12:47:28.548Z,101347.06
2022-12-12T12:50:04.092Z,101340.63
2022-12-12T12:52:41.532Z,101330.38
2022-12-12T12:55:19.152Z,101335.78
2022-12-12T12:57:51.313Z,101339.81
2022-12-12T13:00:26.806Z,101332.38
2022-12-12T13:03:03.552Z,101336.31
2022-12-12T13:05:37.815Z,101325.28
2022-12-12T13:08:18.682Z,101329.81
2022-12-12T13:10:51.804Z,101325.66
2022-12-12T13:13:26.261Z,101320.94
2022-12-12T13:16:01.671Z,101323.88
2022-12-12T13:18:44.446Z,101342.06
2022-12-12T13:21:22.904Z,101341.31
2022-12-12T13:24:00.775Z,101339.94
2022-12-12T13:26:42.071Z,101341.47
2022-12-12T13:29:45.050Z,101335.78
2022-12-12T13:32:55.714Z,101346.66
2022-12-12T13:35:30.568Z,101350.66
2022-12-12T13:38:00.177Z,101348.63
2022-12-12T13:40:33.070Z,101348.63
2022-12-12T13:43:09.678Z,101341.50
2022-12-12T13:45:45.745Z,101341.66
2022-12-12T13:48:46.786Z,101350.16
2022-12-12T13:51:40.137Z,101348.72
2022-12-12T13:54:45.601Z,101342.25
2022-12-12T13:57:23.903Z,101335.41
2022-12-12T14:00:20.576Z,101337.59
2022-12-12T14:03:07.632Z,101325.38
2022-12-12T14:05:42.027Z,101326.16
2022-12-12T14:08:25.513Z,101326.25
2022-12-12T14:11:02.068Z,101328.13
2022-12-12T14:13:42.251Z,101322.94
2022-12-12T14:16:26.789Z,101330.16
2022-12-12T14:19:04.983Z,101321.50
2022-12-12T14:21:46.470Z,101321.94
2022-12-12T14:25:02.984Z,101323.13
2022-12-12T14:28:15.115Z,101332.81
2022-12-12T14:31:03.398Z,101327.72
2022-12-12T14:34:18.355Z,101340.97
2022-12-12T14:37:23.496Z,101346.31
2022-12-12T14:40:14.049Z,101341.16
2022-12-12T14:43:16.432Z,101347.41
2022-12-12T14:45:57.700Z,101350.56
2022-12-12T14:48:32.139Z,101352.25
2022-12-12T14:53:33.480Z,101359.72
2022-12-12T14:56:08.944Z,101362.28
2022-12-12T14:58:42.046Z,101366.88
2022-12-12T15:01:11.229Z,101371.59
2022-12-12T15:03:44.884Z,101372.78
2022-12-12T15:06:39.325Z,101371.44
2022-12-12T15:09:26.628Z,101377.69
2022-12-12T15:11:58.276Z,101374.63
2022-12-12T15:14:29.315Z,101379.38
2022-12-12T15:17:04.360Z,101377.81
2022-12-12T15:19:38.451Z,101382.41
2022-12-12T15:22:13.262Z,101384.94
2022-12-12T15:24:43.887Z,101390.53
2022-12-12T15:27:21.251Z,101384.66
2022-12-12T15:29:50.416Z,101389.13
2022-12-12T15:32:22.456Z,101393.03
2022-12-12T15:35:05.504Z,101389.09
2022-12-12T15:37:35.833Z,101392.81
2022-12-12T15:40:26.316Z,101401.84
2022-12-12T15:42:59.893Z,101395.06
2022-12-12T15:45:35.174Z,101392.66
2022-12-12T15:48:08.553Z,101398.06
